Terminal Aerodrome Forecast
Issued by NWS

Home | Current Version | Previous Version | Text Only | Print | Product List | Glossary On
Versions: 1 2 3 4 5 6 7 8 9 10 11 12 13 14 15 16 17 18 19 20 21 22
100
FTUS41 KPBZ 300538
TAFDUJ
TAF
KDUJ 300538Z 3006/3106 08003KT P6SM BKN100
     FM300900 09004KT 4SM BR BKN080
     FM301200 10004KT P6SM OVC070
     FM301800 13004KT P6SM -SHRA VCTS BKN050CB
     FM310100 10004KT P6SM VCSH BKN060=

USA.gov is the U.S. government's official web portal to all federal, state and local government web resources and services.